AEE317 LIEE-LGIO
Flight info
| Callsign | AEE317 |
|---|---|
| Flight time | 1h 30m |
| Altitude | 38000 |
| Route | LEDRO DCT DORAS DCT ULKEN/N0454F390 DCT LATAN UL869 KRK UM600 PARAX |
| Aircraft | B737/M-SDE2E3FGHIRWXY/LB1 |
Departure
| Time | 2026-04-16 10:37 |
|---|---|
| Airport | Cagliari Elmas Airport (LIEE) |
Arrival
| Time | 2026-04-16 12:08 |
|---|---|
| Airport | Ioannina King Pyrrhus National Airport (LGIO) |
| Time | Latitude | Longitude | Altitude | Speed | Heading |
|---|---|---|---|---|---|
| 2026-04-16 10:10 | 39.25337 | 9.05841 | 14 ft | 0 kts | 142° |
| 2026-04-16 10:27 | 39.25346 | 9.05832 | 14 ft | 4 kts | 142° |
| 2026-04-16 10:28 | 39.25367 | 9.05811 | 15 ft | 4 kts | 144° |
| 2026-04-16 10:28 | 39.25390 | 9.05797 | 14 ft | 4 kts | 182° |
| 2026-04-16 10:28 | 39.25412 | 9.05807 | 15 ft | 3 kts | 228° |
| 2026-04-16 10:28 | 39.25425 | 9.05828 | 14 ft | 4 kts | 232° |
| 2026-04-16 10:29 | 39.25435 | 9.05845 | 14 ft | 0 kts | 232° |
| 2026-04-16 10:31 | 39.25431 | 9.05837 | 14 ft | 5 kts | 232° |
| 2026-04-16 10:31 | 39.25394 | 9.05776 | 14 ft | 11 kts | 231° |
| 2026-04-16 10:31 | 39.25339 | 9.05697 | 14 ft | 11 kts | 207° |
| 2026-04-16 10:32 | 39.25280 | 9.05734 | 14 ft | 10 kts | 138° |
| 2026-04-16 10:32 | 39.25223 | 9.05799 | 15 ft | 12 kts | 138° |
| 2026-04-16 10:32 | 39.25167 | 9.05844 | 14 ft | 8 kts | 190° |
| 2026-04-16 10:32 | 39.25128 | 9.05789 | 16 ft | 9 kts | 227° |
| 2026-04-16 10:33 | 39.25066 | 9.05799 | 15 ft | 12 kts | 142° |
| 2026-04-16 10:33 | 39.24992 | 9.05882 | 15 ft | 16 kts | 137° |
| 2026-04-16 10:33 | 39.24907 | 9.05981 | 15 ft | 17 kts | 137° |
| 2026-04-16 10:33 | 39.24821 | 9.06081 | 15 ft | 16 kts | 139° |
| 2026-04-16 10:34 | 39.24742 | 9.06173 | 16 ft | 15 kts | 138° |
| 2026-04-16 10:34 | 39.24668 | 9.06257 | 16 ft | 14 kts | 138° |
| 2026-04-16 10:34 | 39.24591 | 9.06347 | 15 ft | 15 kts | 138° |
| 2026-04-16 10:34 | 39.24513 | 9.06438 | 16 ft | 15 kts | 138° |
| 2026-04-16 10:35 | 39.24442 | 9.06520 | 14 ft | 13 kts | 138° |
| 2026-04-16 10:35 | 39.24382 | 9.06575 | 16 ft | 9 kts | 169° |
| 2026-04-16 10:35 | 39.24320 | 9.06556 | 16 ft | 9 kts | 199° |
| 2026-04-16 10:35 | 39.24268 | 9.06532 | 16 ft | 7 kts | 208° |
| 2026-04-16 10:36 | 39.24253 | 9.06475 | 16 ft | 8 kts | 290° |
| 2026-04-16 10:36 | 39.24269 | 9.06446 | 15 ft | 0 kts | 315° |
| 2026-04-16 10:36 | 39.24316 | 9.06391 | 17 ft | 37 kts | 317° |
| 2026-04-16 10:36 | 39.24693 | 9.05953 | 14 ft | 108 kts | 318° |
| 2026-04-16 10:37 | 39.25412 | 9.05117 | 24 ft | 163 kts | 318° |
| 2026-04-16 10:37 | 39.26275 | 9.04125 | 529 ft | 171 kts | 319° |
| 2026-04-16 10:37 | 39.27193 | 9.02983 | 1091 ft | 184 kts | 307° |
| 2026-04-16 10:37 | 39.27851 | 9.01605 | 1973 ft | 186 kts | 300° |
| 2026-04-16 10:38 | 39.28534 | 9.00089 | 2400 ft | 210 kts | 302° |
| 2026-04-16 10:38 | 39.29336 | 8.98428 | 2953 ft | 223 kts | 308° |
| 2026-04-16 10:38 | 39.30533 | 8.97241 | 3865 ft | 218 kts | 343° |
| 2026-04-16 10:38 | 39.32032 | 8.97169 | 4669 ft | 222 kts | 15° |
| 2026-04-16 10:39 | 39.33354 | 8.98210 | 5508 ft | 228 kts | 46° |
| 2026-04-16 10:39 | 39.34068 | 9.00054 | 6366 ft | 237 kts | 78° |
| 2026-04-16 10:39 | 39.33873 | 9.02188 | 7201 ft | 249 kts | 113° |
| 2026-04-16 10:39 | 39.32757 | 9.03929 | 8074 ft | 256 kts | 136° |
| 2026-04-16 10:40 | 39.31396 | 9.05442 | 8969 ft | 260 kts | 137° |
| 2026-04-16 10:40 | 39.30015 | 9.06963 | 9882 ft | 262 kts | 137° |
| 2026-04-16 10:40 | 39.28626 | 9.08525 | 10773 ft | 266 kts | 136° |
| 2026-04-16 10:40 | 39.27233 | 9.10111 | 11652 ft | 269 kts | 136° |
| 2026-04-16 10:41 | 39.25836 | 9.11722 | 12546 ft | 270 kts | 131° |
| 2026-04-16 10:41 | 39.24916 | 9.13772 | 13369 ft | 264 kts | 96° |
| 2026-04-16 10:41 | 39.24977 | 9.16098 | 14275 ft | 259 kts | 77° |
| 2026-04-16 10:41 | 39.25295 | 9.18407 | 15085 ft | 264 kts | 77° |
| 2026-04-16 10:42 | 39.25597 | 9.20759 | 15982 ft | 266 kts | 78° |
| 2026-04-16 10:42 | 39.25857 | 9.23138 | 16839 ft | 270 kts | 80° |
| 2026-04-16 10:42 | 39.26077 | 9.25523 | 17657 ft | 273 kts | 81° |
| 2026-04-16 10:42 | 39.26271 | 9.27975 | 18475 ft | 276 kts | 82° |
| 2026-04-16 10:43 | 39.26443 | 9.30453 | 19255 ft | 279 kts | 82° |
| 2026-04-16 10:43 | 39.26602 | 9.32968 | 20026 ft | 283 kts | 82° |
| 2026-04-16 10:43 | 39.26751 | 9.35511 | 20789 ft | 286 kts | 82° |
| 2026-04-16 10:43 | 39.26895 | 9.38091 | 21553 ft | 289 kts | 82° |
| 2026-04-16 10:44 | 39.27036 | 9.40693 | 22289 ft | 292 kts | 82° |
| 2026-04-16 10:44 | 39.27175 | 9.43327 | 22989 ft | 296 kts | 82° |
| 2026-04-16 10:44 | 39.27314 | 9.45986 | 23720 ft | 298 kts | 82° |
| 2026-04-16 10:44 | 39.27452 | 9.48678 | 24397 ft | 302 kts | 82° |
| 2026-04-16 10:45 | 39.27590 | 9.51395 | 25064 ft | 305 kts | 81° |
| 2026-04-16 10:45 | 39.27729 | 9.54140 | 25720 ft | 308 kts | 81° |
| 2026-04-16 10:45 | 39.27869 | 9.56917 | 26362 ft | 311 kts | 81° |
| 2026-04-16 10:45 | 39.28010 | 9.59720 | 26989 ft | 314 kts | 81° |
| 2026-04-16 10:46 | 39.28150 | 9.62511 | 27592 ft | 317 kts | 81° |
| 2026-04-16 10:46 | 39.28291 | 9.65365 | 28201 ft | 320 kts | 81° |
| 2026-04-16 10:46 | 39.28444 | 9.68238 | 28755 ft | 323 kts | 79° |
| 2026-04-16 10:46 | 39.28710 | 9.71194 | 28856 ft | 340 kts | 77° |
| 2026-04-16 10:47 | 39.29051 | 9.74289 | 28990 ft | 357 kts | 77° |
| 2026-04-16 10:47 | 39.29424 | 9.77538 | 29102 ft | 373 kts | 77° |
| 2026-04-16 10:47 | 39.29808 | 9.80912 | 29201 ft | 388 kts | 77° |
| 2026-04-16 10:47 | 39.30201 | 9.84427 | 29299 ft | 403 kts | 77° |
| 2026-04-16 10:48 | 39.30600 | 9.88067 | 29391 ft | 416 kts | 77° |
| 2026-04-16 10:48 | 39.31004 | 9.91810 | 29465 ft | 428 kts | 78° |
| 2026-04-16 10:48 | 39.31826 | 9.99599 | 29716 ft | 445 kts | 78° |
| 2026-04-16 10:49 | 39.32242 | 10.03584 | 29992 ft | 449 kts | 78° |
| 2026-04-16 10:49 | 39.32654 | 10.07568 | 30580 ft | 445 kts | 78° |
| 2026-04-16 10:49 | 39.33056 | 10.11465 | 31170 ft | 441 kts | 78° |
| 2026-04-16 10:49 | 39.33460 | 10.15382 | 31628 ft | 440 kts | 78° |
| 2026-04-16 10:50 | 39.33865 | 10.19302 | 31968 ft | 442 kts | 78° |
| 2026-04-16 10:50 | 39.34272 | 10.23238 | 32321 ft | 442 kts | 78° |
| 2026-04-16 10:50 | 39.34678 | 10.27179 | 32752 ft | 441 kts | 78° |
| 2026-04-16 10:50 | 39.35084 | 10.31144 | 33180 ft | 440 kts | 78° |
| 2026-04-16 10:51 | 39.35481 | 10.35018 | 33522 ft | 440 kts | 77° |
| 2026-04-16 10:51 | 39.35880 | 10.38930 | 33872 ft | 440 kts | 77° |
| 2026-04-16 10:51 | 39.36279 | 10.42851 | 34227 ft | 439 kts | 77° |
| 2026-04-16 10:51 | 39.36675 | 10.46766 | 34533 ft | 440 kts | 78° |
| 2026-04-16 10:52 | 39.37070 | 10.50684 | 34830 ft | 440 kts | 78° |
| 2026-04-16 10:52 | 39.37465 | 10.54612 | 35101 ft | 441 kts | 78° |
| 2026-04-16 10:52 | 39.37860 | 10.58544 | 35378 ft | 442 kts | 78° |
| 2026-04-16 10:52 | 39.38253 | 10.62490 | 35640 ft | 443 kts | 78° |
| 2026-04-16 10:53 | 39.38645 | 10.66438 | 35889 ft | 443 kts | 78° |
| 2026-04-16 10:53 | 39.39036 | 10.70387 | 36147 ft | 444 kts | 78° |
| 2026-04-16 10:53 | 39.39427 | 10.74345 | 36399 ft | 444 kts | 78° |
| 2026-04-16 10:53 | 39.39817 | 10.78306 | 36635 ft | 445 kts | 78° |
| 2026-04-16 10:54 | 39.40081 | 10.80997 | 36865 ft | 443 kts | 78° |
| 2026-04-16 10:54 | 39.40459 | 10.84873 | 37338 ft | 437 kts | 78° |
| 2026-04-16 10:54 | 39.40837 | 10.88763 | 37667 ft | 436 kts | 79° |
| 2026-04-16 10:54 | 39.41216 | 10.92665 | 37753 ft | 440 kts | 79° |
| 2026-04-16 10:55 | 39.41981 | 11.00553 | 38094 ft | 442 kts | 79° |
| 2026-04-16 10:55 | 39.42359 | 11.04493 | 38334 ft | 442 kts | 79° |
| 2026-04-16 10:55 | 39.42737 | 11.08454 | 38491 ft | 444 kts | 79° |
| 2026-04-16 10:56 | 39.43116 | 11.12414 | 38665 ft | 444 kts | 79° |
| 2026-04-16 10:56 | 39.43492 | 11.16375 | 38894 ft | 444 kts | 79° |
| 2026-04-16 10:56 | 39.43868 | 11.20345 | 39054 ft | 445 kts | 79° |
| 2026-04-16 10:56 | 39.44246 | 11.24340 | 39065 ft | 449 kts | 79° |
| 2026-04-16 10:57 | 39.44996 | 11.32339 | 39069 ft | 446 kts | 79° |
| 2026-04-16 10:57 | 39.45734 | 11.40281 | 39072 ft | 443 kts | 79° |
| 2026-04-16 10:58 | 39.46463 | 11.48172 | 39071 ft | 440 kts | 80° |
| 2026-04-16 10:58 | 39.47184 | 11.56027 | 39074 ft | 439 kts | 80° |
| 2026-04-16 10:59 | 39.47897 | 11.63862 | 39075 ft | 438 kts | 80° |
| 2026-04-16 10:59 | 39.48507 | 11.70609 | 39075 ft | 439 kts | 80° |
| 2026-04-16 11:00 | 39.49185 | 11.78161 | 39068 ft | 441 kts | 80° |
| 2026-04-16 11:00 | 39.49880 | 11.85964 | 39067 ft | 442 kts | 80° |
| 2026-04-16 11:01 | 39.50578 | 11.93849 | 39065 ft | 444 kts | 81° |
| 2026-04-16 11:01 | 39.51276 | 12.01809 | 39058 ft | 445 kts | 81° |
| 2026-04-16 11:02 | 39.51969 | 12.09775 | 39055 ft | 446 kts | 81° |
| 2026-04-16 11:02 | 39.52658 | 12.17759 | 39048 ft | 446 kts | 81° |
| 2026-04-16 11:03 | 39.53340 | 12.25753 | 39053 ft | 446 kts | 81° |
| 2026-04-16 11:04 | 39.54357 | 12.37742 | 39065 ft | 446 kts | 81° |
| 2026-04-16 11:04 | 39.55025 | 12.45714 | 39065 ft | 445 kts | 81° |
| 2026-04-16 11:05 | 39.55689 | 12.53698 | 39066 ft | 445 kts | 81° |
| 2026-04-16 11:05 | 39.56343 | 12.61622 | 39056 ft | 445 kts | 81° |
| 2026-04-16 11:06 | 39.56996 | 12.69605 | 39057 ft | 445 kts | 81° |
| 2026-04-16 11:06 | 39.57640 | 12.77586 | 39052 ft | 445 kts | 82° |
| 2026-04-16 11:07 | 39.58283 | 12.85564 | 39056 ft | 445 kts | 82° |
| 2026-04-16 11:07 | 39.58919 | 12.93540 | 39054 ft | 444 kts | 82° |
| 2026-04-16 11:08 | 39.59548 | 13.01510 | 39058 ft | 444 kts | 82° |
| 2026-04-16 11:08 | 39.60045 | 13.09468 | 39057 ft | 446 kts | 85° |
| 2026-04-16 11:09 | 39.60185 | 13.17545 | 39059 ft | 446 kts | 87° |
| 2026-04-16 11:09 | 39.60268 | 13.25597 | 39055 ft | 447 kts | 87° |
| 2026-04-16 11:10 | 39.60371 | 13.33648 | 39055 ft | 446 kts | 87° |
| 2026-04-16 11:10 | 39.60488 | 13.41700 | 39058 ft | 446 kts | 87° |
| 2026-04-16 11:11 | 39.60608 | 13.49747 | 39065 ft | 446 kts | 87° |
| 2026-04-16 11:11 | 39.60722 | 13.57739 | 39062 ft | 446 kts | 87° |
| 2026-04-16 11:12 | 39.60830 | 13.65789 | 39056 ft | 446 kts | 87° |
| 2026-04-16 11:12 | 39.60932 | 13.73841 | 39055 ft | 446 kts | 87° |
| 2026-04-16 11:13 | 39.61030 | 13.81880 | 39053 ft | 446 kts | 87° |
| 2026-04-16 11:13 | 39.61120 | 13.89922 | 39055 ft | 446 kts | 88° |
| 2026-04-16 11:14 | 39.61204 | 13.97959 | 39056 ft | 446 kts | 88° |
| 2026-04-16 11:14 | 39.61284 | 14.05996 | 39055 ft | 445 kts | 88° |
| 2026-04-16 11:15 | 39.61360 | 14.14022 | 39061 ft | 445 kts | 88° |
| 2026-04-16 11:15 | 39.61429 | 14.22045 | 39056 ft | 445 kts | 88° |
| 2026-04-16 11:16 | 39.61489 | 14.30063 | 39057 ft | 445 kts | 88° |
| 2026-04-16 11:16 | 39.61546 | 14.38095 | 39055 ft | 445 kts | 88° |
| 2026-04-16 11:17 | 39.61598 | 14.46124 | 39056 ft | 445 kts | 88° |
| 2026-04-16 11:17 | 39.61645 | 14.54148 | 39050 ft | 445 kts | 88° |
| 2026-04-16 11:18 | 39.61686 | 14.62173 | 39052 ft | 445 kts | 88° |
| 2026-04-16 11:18 | 39.61720 | 14.70213 | 39058 ft | 445 kts | 88° |
| 2026-04-16 11:19 | 39.61751 | 14.78252 | 39074 ft | 446 kts | 89° |
| 2026-04-16 11:19 | 39.61776 | 14.86291 | 39073 ft | 446 kts | 89° |
| 2026-04-16 11:20 | 39.61794 | 14.94339 | 39074 ft | 446 kts | 89° |
| 2026-04-16 11:20 | 39.61807 | 15.02376 | 39085 ft | 446 kts | 89° |
| 2026-04-16 11:21 | 39.61817 | 15.10359 | 39091 ft | 445 kts | 89° |
| 2026-04-16 11:21 | 39.61819 | 15.18375 | 39094 ft | 445 kts | 89° |
| 2026-04-16 11:22 | 39.61813 | 15.26396 | 39092 ft | 444 kts | 89° |
| 2026-04-16 11:22 | 39.61806 | 15.34409 | 39095 ft | 443 kts | 89° |
| 2026-04-16 11:23 | 39.61792 | 15.42411 | 39095 ft | 444 kts | 90° |
| 2026-04-16 11:23 | 39.61771 | 15.50417 | 39094 ft | 444 kts | 90° |
| 2026-04-16 11:24 | 39.61745 | 15.58429 | 39100 ft | 444 kts | 90° |
| 2026-04-16 11:24 | 39.61715 | 15.66454 | 39098 ft | 445 kts | 90° |
| 2026-04-16 11:25 | 39.61679 | 15.74423 | 39103 ft | 445 kts | 90° |
| 2026-04-16 11:25 | 39.61638 | 15.82444 | 39104 ft | 445 kts | 90° |
| 2026-04-16 11:26 | 39.61591 | 15.90473 | 39098 ft | 444 kts | 90° |
| 2026-04-16 11:26 | 39.61537 | 15.98479 | 39111 ft | 444 kts | 90° |
| 2026-04-16 11:27 | 39.61363 | 16.06468 | 39109 ft | 443 kts | 95° |
| 2026-04-16 11:27 | 39.60622 | 16.14406 | 39120 ft | 443 kts | 97° |
| 2026-04-16 11:28 | 39.59775 | 16.22314 | 39116 ft | 442 kts | 98° |
| 2026-04-16 11:28 | 39.58959 | 16.30220 | 39114 ft | 442 kts | 97° |
| 2026-04-16 11:29 | 39.58170 | 16.38118 | 39105 ft | 442 kts | 97° |
| 2026-04-16 11:29 | 39.57385 | 16.46009 | 39114 ft | 441 kts | 97° |
| 2026-04-16 11:30 | 39.56609 | 16.53838 | 39113 ft | 441 kts | 97° |
| 2026-04-16 11:30 | 39.55820 | 16.61717 | 39109 ft | 441 kts | 97° |
| 2026-04-16 11:31 | 39.55025 | 16.69596 | 39103 ft | 441 kts | 98° |
| 2026-04-16 11:31 | 39.54222 | 16.77485 | 39101 ft | 441 kts | 98° |
| 2026-04-16 11:32 | 39.53414 | 16.85379 | 39094 ft | 442 kts | 98° |
| 2026-04-16 11:32 | 39.52600 | 16.93273 | 39084 ft | 442 kts | 98° |
| 2026-04-16 11:33 | 39.51780 | 17.01157 | 39077 ft | 441 kts | 98° |
| 2026-04-16 11:33 | 39.50956 | 17.09031 | 39074 ft | 441 kts | 98° |
| 2026-04-16 11:34 | 39.50125 | 17.16922 | 39031 ft | 442 kts | 98° |
| 2026-04-16 11:34 | 39.49296 | 17.24753 | 39020 ft | 442 kts | 98° |
| 2026-04-16 11:35 | 39.48454 | 17.32637 | 39015 ft | 441 kts | 98° |
| 2026-04-16 11:35 | 39.47612 | 17.40492 | 39027 ft | 441 kts | 98° |
| 2026-04-16 11:36 | 39.46766 | 17.48331 | 39028 ft | 440 kts | 98° |
| 2026-04-16 11:36 | 39.45914 | 17.56170 | 39028 ft | 439 kts | 98° |
| 2026-04-16 11:37 | 39.45057 | 17.63990 | 39029 ft | 439 kts | 98° |
| 2026-04-16 11:37 | 39.44195 | 17.71816 | 39027 ft | 439 kts | 98° |
| 2026-04-16 11:38 | 39.43329 | 17.79628 | 39029 ft | 439 kts | 98° |
| 2026-04-16 11:38 | 39.42458 | 17.87441 | 39038 ft | 439 kts | 98° |
| 2026-04-16 11:39 | 39.41580 | 17.95257 | 39038 ft | 439 kts | 99° |
| 2026-04-16 11:39 | 39.40698 | 18.03069 | 39034 ft | 439 kts | 99° |
| 2026-04-16 11:40 | 39.39810 | 18.10883 | 39038 ft | 439 kts | 99° |
| 2026-04-16 11:40 | 39.38915 | 18.18702 | 39035 ft | 440 kts | 99° |
| 2026-04-16 11:41 | 39.38168 | 18.25204 | 39020 ft | 440 kts | 99° |
| 2026-04-16 11:41 | 39.37272 | 18.32970 | 39007 ft | 440 kts | 99° |
| 2026-04-16 11:42 | 39.36213 | 18.42058 | 39012 ft | 440 kts | 99° |
| 2026-04-16 11:42 | 39.35448 | 18.48601 | 39014 ft | 439 kts | 99° |
| 2026-04-16 11:43 | 39.34528 | 18.56412 | 39008 ft | 440 kts | 99° |
| 2026-04-16 11:43 | 39.33605 | 18.64213 | 39004 ft | 440 kts | 99° |
| 2026-04-16 11:44 | 39.32681 | 18.71978 | 38994 ft | 440 kts | 99° |
| 2026-04-16 11:44 | 39.31753 | 18.79727 | 38989 ft | 440 kts | 99° |
| 2026-04-16 11:45 | 39.30806 | 18.87585 | 38993 ft | 439 kts | 99° |
| 2026-04-16 11:45 | 39.29869 | 18.95328 | 38934 ft | 440 kts | 99° |
| 2026-04-16 11:45 | 39.29555 | 18.99304 | 38401 ft | 446 kts | 92° |
| 2026-04-16 11:46 | 39.29689 | 19.03281 | 37808 ft | 444 kts | 83° |
| 2026-04-16 11:46 | 39.30225 | 19.07197 | 37217 ft | 442 kts | 81° |
| 2026-04-16 11:46 | 39.30820 | 19.11082 | 36535 ft | 440 kts | 81° |
| 2026-04-16 11:46 | 39.31422 | 19.14956 | 35838 ft | 439 kts | 81° |
| 2026-04-16 11:47 | 39.32014 | 19.18833 | 35046 ft | 441 kts | 82° |
| 2026-04-16 11:47 | 39.32594 | 19.22718 | 34254 ft | 442 kts | 83° |
| 2026-04-16 11:47 | 39.33165 | 19.26622 | 33421 ft | 442 kts | 83° |
| 2026-04-16 11:47 | 39.33723 | 19.30485 | 32568 ft | 444 kts | 83° |
| 2026-04-16 11:48 | 39.34292 | 19.34456 | 31641 ft | 445 kts | 83° |
| 2026-04-16 11:48 | 39.34855 | 19.38398 | 30707 ft | 447 kts | 83° |
| 2026-04-16 11:48 | 39.35419 | 19.42354 | 29717 ft | 449 kts | 82° |
| 2026-04-16 11:48 | 39.35983 | 19.46321 | 28752 ft | 450 kts | 82° |
| 2026-04-16 11:49 | 39.36547 | 19.50284 | 28020 ft | 444 kts | 82° |
| 2026-04-16 11:49 | 39.37102 | 19.54195 | 27271 ft | 439 kts | 82° |
| 2026-04-16 11:49 | 39.37649 | 19.58057 | 26534 ft | 434 kts | 82° |
| 2026-04-16 11:49 | 39.38187 | 19.61869 | 25808 ft | 429 kts | 82° |
| 2026-04-16 11:50 | 39.38710 | 19.65648 | 25016 ft | 425 kts | 82° |
| 2026-04-16 11:50 | 39.39202 | 19.69406 | 24247 ft | 422 kts | 82° |
| 2026-04-16 11:50 | 39.39683 | 19.73119 | 23507 ft | 417 kts | 82° |
| 2026-04-16 11:50 | 39.40173 | 19.76787 | 22788 ft | 412 kts | 82° |
| 2026-04-16 11:51 | 39.40678 | 19.80416 | 22078 ft | 407 kts | 82° |
| 2026-04-16 11:51 | 39.41182 | 19.84001 | 21362 ft | 403 kts | 81° |
| 2026-04-16 11:51 | 39.41678 | 19.87545 | 20652 ft | 398 kts | 81° |
| 2026-04-16 11:51 | 39.42160 | 19.91005 | 19964 ft | 394 kts | 81° |
| 2026-04-16 11:52 | 39.42640 | 19.94473 | 19267 ft | 390 kts | 81° |
| 2026-04-16 11:52 | 39.43114 | 19.97908 | 18573 ft | 386 kts | 81° |
| 2026-04-16 11:52 | 39.43582 | 20.01310 | 17879 ft | 382 kts | 81° |
| 2026-04-16 11:52 | 39.44043 | 20.04680 | 17191 ft | 378 kts | 81° |
| 2026-04-16 11:53 | 39.44634 | 20.07980 | 16499 ft | 376 kts | 73° |
| 2026-04-16 11:53 | 39.45619 | 20.11106 | 15835 ft | 374 kts | 68° |
| 2026-04-16 11:53 | 39.46691 | 20.14155 | 15157 ft | 371 kts | 67° |
| 2026-04-16 11:53 | 39.47766 | 20.17173 | 14477 ft | 368 kts | 68° |
| 2026-04-16 11:54 | 39.48826 | 20.20173 | 13809 ft | 364 kts | 68° |
| 2026-04-16 11:54 | 39.49864 | 20.23143 | 13163 ft | 360 kts | 68° |
| 2026-04-16 11:54 | 39.50884 | 20.26087 | 12509 ft | 356 kts | 68° |
| 2026-04-16 11:54 | 39.51887 | 20.28998 | 11869 ft | 353 kts | 68° |
| 2026-04-16 11:55 | 39.52880 | 20.31890 | 11228 ft | 350 kts | 68° |
| 2026-04-16 11:55 | 39.53864 | 20.34758 | 10662 ft | 345 kts | 68° |
| 2026-04-16 11:55 | 39.54814 | 20.37525 | 10530 ft | 327 kts | 68° |
| 2026-04-16 11:55 | 39.55718 | 20.40160 | 10376 ft | 312 kts | 68° |
| 2026-04-16 11:56 | 39.56573 | 20.42675 | 10236 ft | 300 kts | 68° |
| 2026-04-16 11:56 | 39.57406 | 20.45088 | 10114 ft | 287 kts | 68° |
| 2026-04-16 11:56 | 39.58199 | 20.47396 | 10046 ft | 273 kts | 68° |
| 2026-04-16 11:56 | 39.59045 | 20.49572 | 9710 ft | 272 kts | 53° |
| 2026-04-16 11:57 | 39.60556 | 20.51002 | 9407 ft | 273 kts | 21° |
| 2026-04-16 11:57 | 39.62433 | 20.51293 | 9072 ft | 275 kts | 354° |
| 2026-04-16 11:57 | 39.64259 | 20.50566 | 8750 ft | 275 kts | 338° |
| 2026-04-16 11:57 | 39.66064 | 20.49825 | 8500 ft | 267 kts | 352° |
| 2026-04-16 11:58 | 39.67872 | 20.49579 | 8372 ft | 257 kts | 0° |
| 2026-04-16 11:58 | 39.69621 | 20.49590 | 8246 ft | 246 kts | 4° |
| 2026-04-16 11:58 | 39.71278 | 20.49714 | 8137 ft | 237 kts | 6° |
| 2026-04-16 11:58 | 39.72890 | 20.49902 | 8037 ft | 228 kts | 8° |
| 2026-04-16 11:59 | 39.74432 | 20.50156 | 7912 ft | 221 kts | 8° |
| 2026-04-16 11:59 | 39.75971 | 20.50235 | 7728 ft | 221 kts | 2° |
| 2026-04-16 11:59 | 39.77527 | 20.50232 | 7493 ft | 225 kts | 2° |
| 2026-04-16 11:59 | 39.79096 | 20.50235 | 7262 ft | 225 kts | 2° |
| 2026-04-16 12:00 | 39.80651 | 20.50335 | 6999 ft | 222 kts | 17° |
| 2026-04-16 12:00 | 39.81912 | 20.51382 | 6770 ft | 215 kts | 49° |
| 2026-04-16 12:00 | 39.82894 | 20.52823 | 6553 ft | 214 kts | 49° |
| 2026-04-16 12:00 | 39.83875 | 20.54263 | 6336 ft | 210 kts | 49° |
| 2026-04-16 12:01 | 39.84827 | 20.55661 | 6084 ft | 203 kts | 49° |
| 2026-04-16 12:01 | 39.85748 | 20.57014 | 5864 ft | 196 kts | 49° |
| 2026-04-16 12:01 | 39.86637 | 20.58322 | 5621 ft | 190 kts | 51° |
| 2026-04-16 12:02 | 39.86840 | 20.61500 | 5266 ft | 189 kts | 121° |
| 2026-04-16 12:02 | 39.85975 | 20.62788 | 5141 ft | 192 kts | 134° |
| 2026-04-16 12:02 | 39.85015 | 20.63966 | 5006 ft | 185 kts | 135° |
| 2026-04-16 12:02 | 39.84098 | 20.65073 | 4857 ft | 174 kts | 135° |
| 2026-04-16 12:03 | 39.83227 | 20.66131 | 4726 ft | 169 kts | 135° |
| 2026-04-16 12:03 | 39.82370 | 20.67178 | 4605 ft | 170 kts | 134° |
| 2026-04-16 12:03 | 39.81503 | 20.68238 | 4510 ft | 173 kts | 134° |
| 2026-04-16 12:03 | 39.80626 | 20.69309 | 4358 ft | 171 kts | 135° |
| 2026-04-16 12:04 | 39.79800 | 20.70313 | 4205 ft | 154 kts | 134° |
| 2026-04-16 12:04 | 39.79058 | 20.71217 | 4058 ft | 141 kts | 135° |
| 2026-04-16 12:04 | 39.78352 | 20.72081 | 3835 ft | 138 kts | 134° |
| 2026-04-16 12:04 | 39.77643 | 20.72946 | 3643 ft | 141 kts | 134° |
| 2026-04-16 12:05 | 39.76926 | 20.73819 | 3442 ft | 141 kts | 134° |
| 2026-04-16 12:05 | 39.76219 | 20.74690 | 3223 ft | 140 kts | 135° |
| 2026-04-16 12:05 | 39.75526 | 20.75567 | 3075 ft | 139 kts | 130° |
| 2026-04-16 12:05 | 39.74865 | 20.76493 | 2928 ft | 140 kts | 134° |
| 2026-04-16 12:06 | 39.74160 | 20.77356 | 2680 ft | 141 kts | 135° |
| 2026-04-16 12:06 | 39.73433 | 20.78203 | 2384 ft | 141 kts | 136° |
| 2026-04-16 12:06 | 39.72719 | 20.79059 | 2197 ft | 140 kts | 135° |
| 2026-04-16 12:06 | 39.71981 | 20.79902 | 1971 ft | 140 kts | 139° |
| 2026-04-16 12:07 | 39.71227 | 20.80675 | 1771 ft | 137 kts | 140° |
| 2026-04-16 12:07 | 39.70484 | 20.81431 | 1608 ft | 133 kts | 140° |
| 2026-04-16 12:07 | 39.69785 | 20.82146 | 1566 ft | 115 kts | 141° |
| 2026-04-16 12:07 | 39.69320 | 20.82613 | 1566 ft | 54 kts | 143° |
| 2026-04-16 12:08 | 39.69115 | 20.82823 | 1567 ft | 35 kts | 141° |
| 2026-04-16 12:08 | 39.68963 | 20.82974 | 1567 ft | 16 kts | 150° |
| 2026-04-16 12:08 | 39.68903 | 20.83036 | 1566 ft | 5 kts | 52° |
| 2026-04-16 12:08 | 39.68945 | 20.83001 | 1567 ft | 13 kts | 318° |
| 2026-04-16 12:09 | 39.69042 | 20.82898 | 1567 ft | 22 kts | 321° |
| 2026-04-16 12:09 | 39.69155 | 20.82780 | 1567 ft | 19 kts | 323° |
| 2026-04-16 12:09 | 39.69225 | 20.82675 | 1567 ft | 15 kts | 284° |
| 2026-04-16 12:09 | 39.69239 | 20.82624 | 1565 ft | 0 kts | 291° |
| 2026-04-16 12:10 | 39.69240 | 20.82620 | 1565 ft | 2 kts | 292° |
| 2026-04-16 12:10 | 39.69256 | 20.82572 | 1565 ft | 9 kts | 292° |
| 2026-04-16 12:10 | 39.69288 | 20.82480 | 1564 ft | 13 kts | 304° |
| 2026-04-16 12:10 | 39.69336 | 20.82409 | 1564 ft | 9 kts | 290° |
| 2026-04-16 12:11 | 39.69332 | 20.82342 | 1564 ft | 6 kts | 271° |
| 2026-04-16 12:11 | 39.69332 | 20.82327 | 1564 ft | 0 kts | 269° |